sensor_id;sensor_type;location;lat;lon;timestamp;P1;durP1;ratioP1;P2;durP2;ratioP2
49824;SDS011;35714;55.708;37.478;2023-02-11T00:01:09;15.00;;;6.85;;
49824;SDS011;35714;55.708;37.478;2023-02-11T00:03:38;12.88;;;6.45;;
49824;SDS011;35714;55.708;37.478;2023-02-11T00:06:04;10.98;;;5.25;;
49824;SDS011;35714;55.708;37.478;2023-02-11T00:08:33;16.77;;;7.03;;
49824;SDS011;35714;55.708;37.478;2023-02-11T00:10:59;16.02;;;6.03;;
49824;SDS011;35714;55.708;37.478;2023-02-11T00:13:25;16.08;;;6.82;;
49824;SDS011;35714;55.708;37.478;2023-02-11T00:15:51;16.15;;;6.60;;
49824;SDS011;35714;55.708;37.478;2023-02-11T00:18:17;11.15;;;5.80;;
49824;SDS011;35714;55.708;37.478;2023-02-11T00:20:43;20.40;;;7.63;;
49824;SDS011;35714;55.708;37.478;2023-02-11T00:23:08;14.30;;;5.90;;
49824;SDS011;35714;55.708;37.478;2023-02-11T00:25:38;7.32;;;3.78;;
49824;SDS011;35714;55.708;37.478;2023-02-11T00:28:05;11.45;;;4.97;;
49824;SDS011;35714;55.708;37.478;2023-02-11T00:30:31;11.15;;;4.85;;
49824;SDS011;35714;55.708;37.478;2023-02-11T00:32:57;11.32;;;5.10;;
49824;SDS011;35714;55.708;37.478;2023-02-11T00:35:23;13.77;;;6.40;;
49824;SDS011;35714;55.708;37.478;2023-02-11T00:37:51;18.55;;;7.13;;
49824;SDS011;35714;55.708;37.478;2023-02-11T00:40:18;13.77;;;6.20;;
49824;SDS011;35714;55.708;37.478;2023-02-11T00:42:43;12.38;;;6.50;;
49824;SDS011;35714;55.708;37.478;2023-02-11T00:45:09;16.00;;;6.38;;
49824;SDS011;35714;55.708;37.478;2023-02-11T00:47:35;18.35;;;7.25;;
49824;SDS011;35714;55.708;37.478;2023-02-11T00:50:01;18.25;;;7.55;;
49824;SDS011;35714;55.708;37.478;2023-02-11T00:52:30;16.65;;;5.60;;
49824;SDS011;35714;55.708;37.478;2023-02-11T00:54:56;14.40;;;5.90;;
49824;SDS011;35714;55.708;37.478;2023-02-11T00:57:22;12.65;;;5.55;;
49824;SDS011;35714;55.708;37.478;2023-02-11T00:59:48;18.73;;;6.10;;
49824;SDS011;35714;55.708;37.478;2023-02-11T01:02:15;12.23;;;5.65;;
49824;SDS011;35714;55.708;37.478;2023-02-11T01:04:41;12.88;;;6.10;;
49824;SDS011;35714;55.708;37.478;2023-02-11T01:07:07;12.45;;;4.82;;
49824;SDS011;35714;55.708;37.478;2023-02-11T01:09:33;14.80;;;6.47;;
49824;SDS011;35714;55.708;37.478;2023-02-11T01:11:58;12.15;;;4.15;;
49824;SDS011;35714;55.708;37.478;2023-02-11T01:14:24;17.58;;;6.35;;
49824;SDS011;35714;55.708;37.478;2023-02-11T01:16:50;16.05;;;6.03;;
49824;SDS011;35714;55.708;37.478;2023-02-11T01:19:15;16.35;;;5.97;;
49824;SDS011;35714;55.708;37.478;2023-02-11T01:21:44;17.92;;;5.30;;
49824;SDS011;35714;55.708;37.478;2023-02-11T01:24:10;16.17;;;5.85;;
49824;SDS011;35714;55.708;37.478;2023-02-11T01:26:35;15.13;;;5.75;;
49824;SDS011;35714;55.708;37.478;2023-02-11T01:29:01;12.68;;;4.50;;
49824;SDS011;35714;55.708;37.478;2023-02-11T01:31:27;13.35;;;5.95;;
49824;SDS011;35714;55.708;37.478;2023-02-11T01:33:52;11.25;;;4.57;;
49824;SDS011;35714;55.708;37.478;2023-02-11T01:36:18;15.07;;;5.00;;
49824;SDS011;35714;55.708;37.478;2023-02-11T01:38:43;15.52;;;6.35;;
49824;SDS011;35714;55.708;37.478;2023-02-11T01:41:11;8.38;;;3.58;;
49824;SDS011;35714;55.708;37.478;2023-02-11T01:43:43;15.95;;;5.03;;
49824;SDS011;35714;55.708;37.478;2023-02-11T01:46:19;13.68;;;5.28;;
49824;SDS011;35714;55.708;37.478;2023-02-11T01:48:49;16.67;;;4.60;;
49824;SDS011;35714;55.708;37.478;2023-02-11T01:51:23;11.73;;;5.18;;
49824;SDS011;35714;55.708;37.478;2023-02-11T01:53:51;7.68;;;3.40;;
49824;SDS011;35714;55.708;37.478;2023-02-11T01:56:37;11.20;;;4.90;;
49824;SDS011;35714;55.708;37.478;2023-02-11T01:59:37;14.63;;;5.03;;
49824;SDS011;35714;55.708;37.478;2023-02-11T02:02:10;11.57;;;4.00;;
49824;SDS011;35714;55.708;37.478;2023-02-11T02:04:43;11.23;;;4.32;;
49824;SDS011;35714;55.708;37.478;2023-02-11T02:07:18;9.10;;;3.75;;
49824;SDS011;35714;55.708;37.478;2023-02-11T02:09:54;11.93;;;3.67;;
49824;SDS011;35714;55.708;37.478;2023-02-11T02:12:26;9.45;;;3.25;;
49824;SDS011;35714;55.708;37.478;2023-02-11T02:14:51;9.52;;;3.80;;
49824;SDS011;35714;55.708;37.478;2023-02-11T02:17:43;12.15;;;4.45;;
49824;SDS011;35714;55.708;37.478;2023-02-11T02:23:12;7.50;;;3.45;;
49824;SDS011;35714;55.708;37.478;2023-02-11T02:26:08;7.45;;;3.30;;
49824;SDS011;35714;55.708;37.478;2023-02-11T02:34:12;14.55;;;3.78;;
49824;SDS011;35714;55.708;37.478;2023-02-11T02:39:34;11.70;;;3.92;;
49824;SDS011;35714;55.708;37.478;2023-02-11T02:42:01;10.80;;;3.90;;
49824;SDS011;35714;55.708;37.478;2023-02-11T02:44:28;11.65;;;4.22;;
49824;SDS011;35714;55.708;37.478;2023-02-11T02:46:54;9.48;;;3.92;;
49824;SDS011;35714;55.708;37.478;2023-02-11T02:49:20;8.10;;;2.72;;
49824;SDS011;35714;55.708;37.478;2023-02-11T02:57:31;11.00;;;4.25;;
49824;SDS011;35714;55.708;37.478;2023-02-11T03:00:23;12.32;;;3.95;;
49824;SDS011;35714;55.708;37.478;2023-02-11T03:03:09;8.63;;;3.80;;
49824;SDS011;35714;55.708;37.478;2023-02-11T03:05:52;9.85;;;3.03;;
49824;SDS011;35714;55.708;37.478;2023-02-11T03:08:39;9.20;;;2.47;;
49824;SDS011;35714;55.708;37.478;2023-02-11T03:11:10;5.68;;;2.42;;
49824;SDS011;35714;55.708;37.478;2023-02-11T03:13:39;8.82;;;3.55;;
49824;SDS011;35714;55.708;37.478;2023-02-11T03:16:08;8.07;;;2.78;;
49824;SDS011;35714;55.708;37.478;2023-02-11T03:18:40;13.13;;;2.90;;
49824;SDS011;35714;55.708;37.478;2023-02-11T03:21:08;8.02;;;2.33;;
49824;SDS011;35714;55.708;37.478;2023-02-11T03:23:36;5.97;;;2.25;;
49824;SDS011;35714;55.708;37.478;2023-02-11T03:26:29;11.13;;;3.03;;
49824;SDS011;35714;55.708;37.478;2023-02-11T03:29:04;7.65;;;3.00;;
49824;SDS011;35714;55.708;37.478;2023-02-11T03:31:58;6.38;;;2.40;;
49824;SDS011;35714;55.708;37.478;2023-02-11T03:34:29;9.73;;;2.83;;
49824;SDS011;35714;55.708;37.478;2023-02-11T03:37:09;6.63;;;1.88;;
49824;SDS011;35714;55.708;37.478;2023-02-11T03:39:41;8.75;;;3.03;;
49824;SDS011;35714;55.708;37.478;2023-02-11T03:42:11;10.63;;;2.55;;
49824;SDS011;35714;55.708;37.478;2023-02-11T03:44:41;7.30;;;2.67;;
49824;SDS011;35714;55.708;37.478;2023-02-11T03:47:12;9.88;;;3.00;;
49824;SDS011;35714;55.708;37.478;2023-02-11T03:49:40;6.95;;;2.30;;
49824;SDS011;35714;55.708;37.478;2023-02-11T03:52:09;9.93;;;3.17;;
49824;SDS011;35714;55.708;37.478;2023-02-11T03:54:37;7.60;;;2.53;;
49824;SDS011;35714;55.708;37.478;2023-02-11T03:57:04;9.00;;;3.25;;
49824;SDS011;35714;55.708;37.478;2023-02-11T03:59:30;9.77;;;3.08;;
49824;SDS011;35714;55.708;37.478;2023-02-11T04:01:56;9.02;;;2.30;;
49824;SDS011;35714;55.708;37.478;2023-02-11T04:04:23;10.95;;;3.22;;
49824;SDS011;35714;55.708;37.478;2023-02-11T04:06:49;12.27;;;3.30;;
49824;SDS011;35714;55.708;37.478;2023-02-11T04:09:15;7.70;;;2.95;;
49824;SDS011;35714;55.708;37.478;2023-02-11T04:11:40;10.30;;;2.92;;
49824;SDS011;35714;55.708;37.478;2023-02-11T04:14:06;8.52;;;2.67;;
49824;SDS011;35714;55.708;37.478;2023-02-11T04:16:32;6.90;;;2.85;;
49824;SDS011;35714;55.708;37.478;2023-02-11T04:18:57;8.13;;;2.80;;
49824;SDS011;35714;55.708;37.478;2023-02-11T04:21:23;6.85;;;2.17;;
49824;SDS011;35714;55.708;37.478;2023-02-11T04:23:49;9.77;;;3.47;;
49824;SDS011;35714;55.708;37.478;2023-02-11T04:26:14;7.15;;;2.50;;
49824;SDS011;35714;55.708;37.478;2023-02-11T04:28:40;6.93;;;3.10;;
49824;SDS011;35714;55.708;37.478;2023-02-11T04:31:06;11.35;;;3.17;;
49824;SDS011;35714;55.708;37.478;2023-02-11T04:33:31;8.60;;;3.03;;
49824;SDS011;35714;55.708;37.478;2023-02-11T04:35:57;7.10;;;2.85;;
49824;SDS011;35714;55.708;37.478;2023-02-11T04:38:22;8.25;;;2.47;;
49824;SDS011;35714;55.708;37.478;2023-02-11T04:40:48;6.18;;;2.38;;
49824;SDS011;35714;55.708;37.478;2023-02-11T04:43:14;8.02;;;2.30;;
49824;SDS011;35714;55.708;37.478;2023-02-11T04:45:40;7.38;;;2.53;;
49824;SDS011;35714;55.708;37.478;2023-02-11T04:48:06;8.13;;;2.28;;
49824;SDS011;35714;55.708;37.478;2023-02-11T04:50:31;8.27;;;3.63;;
49824;SDS011;35714;55.708;37.478;2023-02-11T04:52:57;8.35;;;2.45;;
49824;SDS011;35714;55.708;37.478;2023-02-11T04:55:22;5.18;;;1.92;;
49824;SDS011;35714;55.708;37.478;2023-02-11T04:57:48;8.18;;;1.92;;
49824;SDS011;35714;55.708;37.478;2023-02-11T05:00:14;8.85;;;2.35;;
49824;SDS011;35714;55.708;37.478;2023-02-11T05:02:40;9.52;;;2.40;;
49824;SDS011;35714;55.708;37.478;2023-02-11T05:05:06;7.32;;;2.50;;
49824;SDS011;35714;55.708;37.478;2023-02-11T05:07:32;4.75;;;1.33;;
49824;SDS011;35714;55.708;37.478;2023-02-11T05:09:57;6.47;;;2.42;;
49824;SDS011;35714;55.708;37.478;2023-02-11T05:12:23;6.57;;;2.38;;
49824;SDS011;35714;55.708;37.478;2023-02-11T05:14:49;10.55;;;2.38;;
49824;SDS011;35714;55.708;37.478;2023-02-11T05:17:14;7.63;;;2.20;;
49824;SDS011;35714;55.708;37.478;2023-02-11T05:19:40;6.38;;;2.08;;
49824;SDS011;35714;55.708;37.478;2023-02-11T05:22:06;8.90;;;2.28;;
49824;SDS011;35714;55.708;37.478;2023-02-11T05:24:32;9.23;;;2.63;;
49824;SDS011;35714;55.708;37.478;2023-02-11T05:26:58;9.60;;;2.50;;
49824;SDS011;35714;55.708;37.478;2023-02-11T05:29:24;6.63;;;2.22;;
49824;SDS011;35714;55.708;37.478;2023-02-11T05:31:50;10.85;;;2.85;;
49824;SDS011;35714;55.708;37.478;2023-02-11T05:34:15;8.25;;;2.42;;
49824;SDS011;35714;55.708;37.478;2023-02-11T05:36:41;6.10;;;2.38;;
49824;SDS011;35714;55.708;37.478;2023-02-11T05:39:06;7.80;;;2.15;;
49824;SDS011;35714;55.708;37.478;2023-02-11T05:41:32;14.68;;;2.67;;
49824;SDS011;35714;55.708;37.478;2023-02-11T05:43:58;9.13;;;1.85;;
49824;SDS011;35714;55.708;37.478;2023-02-11T05:46:23;5.15;;;1.55;;
49824;SDS011;35714;55.708;37.478;2023-02-11T05:48:49;7.75;;;2.25;;
49824;SDS011;35714;55.708;37.478;2023-02-11T05:51:14;9.80;;;2.80;;
49824;SDS011;35714;55.708;37.478;2023-02-11T05:53:40;6.50;;;1.98;;
49824;SDS011;35714;55.708;37.478;2023-02-11T05:56:06;7.35;;;2.40;;
49824;SDS011;35714;55.708;37.478;2023-02-11T05:58:31;8.70;;;3.08;;
49824;SDS011;35714;55.708;37.478;2023-02-11T06:00:57;8.93;;;2.92;;
49824;SDS011;35714;55.708;37.478;2023-02-11T06:03:23;7.53;;;2.40;;
49824;SDS011;35714;55.708;37.478;2023-02-11T06:05:48;7.32;;;2.90;;
49824;SDS011;35714;55.708;37.478;2023-02-11T06:08:14;7.63;;;2.95;;
49824;SDS011;35714;55.708;37.478;2023-02-11T06:10:40;9.07;;;2.65;;
49824;SDS011;35714;55.708;37.478;2023-02-11T06:13:09;10.73;;;3.63;;
49824;SDS011;35714;55.708;37.478;2023-02-11T06:15:34;11.27;;;4.30;;
49824;SDS011;35714;55.708;37.478;2023-02-11T06:18:00;11.35;;;3.88;;
49824;SDS011;35714;55.708;37.478;2023-02-11T06:20:25;14.55;;;4.00;;
49824;SDS011;35714;55.708;37.478;2023-02-11T06:22:51;12.18;;;3.58;;
49824;SDS011;35714;55.708;37.478;2023-02-11T06:25:17;10.75;;;3.45;;
49824;SDS011;35714;55.708;37.478;2023-02-11T06:27:43;8.20;;;3.00;;
49824;SDS011;35714;55.708;37.478;2023-02-11T06:30:08;10.85;;;3.67;;
49824;SDS011;35714;55.708;37.478;2023-02-11T06:32:35;13.63;;;4.15;;
49824;SDS011;35714;55.708;37.478;2023-02-11T06:35:01;11.95;;;3.88;;
49824;SDS011;35714;55.708;37.478;2023-02-11T06:37:27;8.77;;;3.38;;
49824;SDS011;35714;55.708;37.478;2023-02-11T06:39:52;8.35;;;2.83;;
49824;SDS011;35714;55.708;37.478;2023-02-11T06:42:18;10.88;;;3.95;;
49824;SDS011;35714;55.708;37.478;2023-02-11T06:44:44;6.05;;;2.30;;
49824;SDS011;35714;55.708;37.478;2023-02-11T06:47:10;6.38;;;2.33;;
49824;SDS011;35714;55.708;37.478;2023-02-11T06:49:35;10.80;;;3.80;;
49824;SDS011;35714;55.708;37.478;2023-02-11T06:52:01;16.73;;;4.05;;
49824;SDS011;35714;55.708;37.478;2023-02-11T06:54:27;3.92;;;1.63;;
49824;SDS011;35714;55.708;37.478;2023-02-11T06:56:53;10.07;;;3.45;;
49824;SDS011;35714;55.708;37.478;2023-02-11T06:59:19;8.90;;;2.92;;
49824;SDS011;35714;55.708;37.478;2023-02-11T07:01:45;10.63;;;3.95;;
49824;SDS011;35714;55.708;37.478;2023-02-11T07:04:11;10.75;;;3.95;;
49824;SDS011;35714;55.708;37.478;2023-02-11T07:06:38;10.00;;;2.78;;
49824;SDS011;35714;55.708;37.478;2023-02-11T07:09:04;8.10;;;3.55;;
49824;SDS011;35714;55.708;37.478;2023-02-11T07:11:30;7.93;;;3.72;;
49824;SDS011;35714;55.708;37.478;2023-02-11T07:14:01;10.05;;;2.97;;
49824;SDS011;35714;55.708;37.478;2023-02-11T07:16:29;8.88;;;2.72;;
49824;SDS011;35714;55.708;37.478;2023-02-11T07:18:55;10.90;;;3.75;;
49824;SDS011;35714;55.708;37.478;2023-02-11T07:21:21;9.90;;;3.25;;
49824;SDS011;35714;55.708;37.478;2023-02-11T07:23:48;10.93;;;2.67;;
49824;SDS011;35714;55.708;37.478;2023-02-11T07:26:17;12.13;;;3.40;;
49824;SDS011;35714;55.708;37.478;2023-02-11T07:28:44;11.20;;;3.45;;
49824;SDS011;35714;55.708;37.478;2023-02-11T07:33:39;9.25;;;3.50;;
49824;SDS011;35714;55.708;37.478;2023-02-11T07:36:06;9.38;;;3.42;;
49824;SDS011;35714;55.708;37.478;2023-02-11T07:38:33;9.82;;;4.15;;
49824;SDS011;35714;55.708;37.478;2023-02-11T07:41:00;9.05;;;3.03;;
49824;SDS011;35714;55.708;37.478;2023-02-11T07:43:26;10.50;;;3.83;;
49824;SDS011;35714;55.708;37.478;2023-02-11T07:45:52;8.15;;;3.35;;
49824;SDS011;35714;55.708;37.478;2023-02-11T07:48:19;9.23;;;3.05;;
49824;SDS011;35714;55.708;37.478;2023-02-11T07:50:44;10.48;;;3.63;;
49824;SDS011;35714;55.708;37.478;2023-02-11T07:53:10;12.55;;;4.20;;
49824;SDS011;35714;55.708;37.478;2023-02-11T07:55:35;11.80;;;4.38;;
49824;SDS011;35714;55.708;37.478;2023-02-11T07:58:01;10.20;;;4.13;;
49824;SDS011;35714;55.708;37.478;2023-02-11T08:00:26;8.90;;;4.03;;
49824;SDS011;35714;55.708;37.478;2023-02-11T08:02:52;11.32;;;4.43;;
49824;SDS011;35714;55.708;37.478;2023-02-11T08:05:18;9.40;;;3.85;;
49824;SDS011;35714;55.708;37.478;2023-02-11T08:07:44;9.80;;;4.35;;
49824;SDS011;35714;55.708;37.478;2023-02-11T08:10:09;12.57;;;4.32;;
49824;SDS011;35714;55.708;37.478;2023-02-11T08:12:36;11.70;;;4.22;;
49824;SDS011;35714;55.708;37.478;2023-02-11T08:15:01;14.93;;;5.03;;
49824;SDS011;35714;55.708;37.478;2023-02-11T08:17:29;10.60;;;4.57;;
49824;SDS011;35714;55.708;37.478;2023-02-11T08:19:54;13.23;;;4.38;;
49824;SDS011;35714;55.708;37.478;2023-02-11T08:22:20;10.10;;;4.72;;
49824;SDS011;35714;55.708;37.478;2023-02-11T08:24:46;11.90;;;5.20;;
49824;SDS011;35714;55.708;37.478;2023-02-11T08:27:11;9.18;;;4.18;;
49824;SDS011;35714;55.708;37.478;2023-02-11T08:29:37;10.73;;;4.47;;
49824;SDS011;35714;55.708;37.478;2023-02-11T08:32:03;9.95;;;4.13;;
49824;SDS011;35714;55.708;37.478;2023-02-11T08:34:28;9.85;;;4.13;;
49824;SDS011;35714;55.708;37.478;2023-02-11T08:36:54;9.80;;;3.97;;
49824;SDS011;35714;55.708;37.478;2023-02-11T08:39:20;9.48;;;3.88;;
49824;SDS011;35714;55.708;37.478;2023-02-11T08:41:47;10.43;;;4.63;;
49824;SDS011;35714;55.708;37.478;2023-02-11T08:44:16;9.00;;;3.85;;
49824;SDS011;35714;55.708;37.478;2023-02-11T08:46:43;14.02;;;4.80;;
49824;SDS011;35714;55.708;37.478;2023-02-11T08:49:09;11.55;;;4.80;;
49824;SDS011;35714;55.708;37.478;2023-02-11T08:51:34;10.05;;;3.92;;
49824;SDS011;35714;55.708;37.478;2023-02-11T08:54:00;9.82;;;3.72;;
49824;SDS011;35714;55.708;37.478;2023-02-11T08:56:26;10.73;;;3.92;;
49824;SDS011;35714;55.708;37.478;2023-02-11T08:58:52;12.40;;;4.22;;
49824;SDS011;35714;55.708;37.478;2023-02-11T09:01:20;9.63;;;3.67;;
49824;SDS011;35714;55.708;37.478;2023-02-11T09:03:47;10.68;;;4.45;;
49824;SDS011;35714;55.708;37.478;2023-02-11T09:06:14;10.35;;;4.30;;
49824;SDS011;35714;55.708;37.478;2023-02-11T09:08:43;19.58;;;4.20;;
49824;SDS011;35714;55.708;37.478;2023-02-11T09:11:11;11.45;;;3.45;;
49824;SDS011;35714;55.708;37.478;2023-02-11T09:13:39;9.40;;;3.13;;
49824;SDS011;35714;55.708;37.478;2023-02-11T09:16:05;10.55;;;3.22;;
49824;SDS011;35714;55.708;37.478;2023-02-11T09:18:31;10.55;;;3.53;;
49824;SDS011;35714;55.708;37.478;2023-02-11T09:21:01;10.57;;;3.40;;
49824;SDS011;35714;55.708;37.478;2023-02-11T09:23:30;11.38;;;4.90;;
49824;SDS011;35714;55.708;37.478;2023-02-11T09:28:58;7.75;;;3.25;;
49824;SDS011;35714;55.708;37.478;2023-02-11T09:31:25;10.82;;;4.38;;
49824;SDS011;35714;55.708;37.478;2023-02-11T09:33:54;11.30;;;4.32;;
49824;SDS011;35714;55.708;37.478;2023-02-11T09:36:25;8.57;;;4.30;;
49824;SDS011;35714;55.708;37.478;2023-02-11T09:38:53;11.43;;;4.00;;
49824;SDS011;35714;55.708;37.478;2023-02-11T09:43:48;9.88;;;3.97;;
49824;SDS011;35714;55.708;37.478;2023-02-11T09:46:17;9.93;;;3.78;;
49824;SDS011;35714;55.708;37.478;2023-02-11T09:48:44;9.77;;;4.18;;
49824;SDS011;35714;55.708;37.478;2023-02-11T09:51:25;8.60;;;3.75;;
49824;SDS011;35714;55.708;37.478;2023-02-11T09:53:55;8.73;;;3.15;;
49824;SDS011;35714;55.708;37.478;2023-02-11T09:56:25;15.70;;;3.92;;
49824;SDS011;35714;55.708;37.478;2023-02-11T09:58:52;8.40;;;3.65;;
49824;SDS011;35714;55.708;37.478;2023-02-11T10:01:38;13.32;;;4.00;;
49824;SDS011;35714;55.708;37.478;2023-02-11T10:10:03;8.75;;;4.07;;
49824;SDS011;35714;55.708;37.478;2023-02-11T10:24:11;12.70;;;4.05;;
49824;SDS011;35714;55.708;37.478;2023-02-11T10:26:40;12.15;;;4.03;;
49824;SDS011;35714;55.708;37.478;2023-02-11T10:31:51;10.70;;;3.70;;
49824;SDS011;35714;55.708;37.478;2023-02-11T10:34:18;10.30;;;4.38;;
49824;SDS011;35714;55.708;37.478;2023-02-11T10:36:44;11.23;;;4.72;;
49824;SDS011;35714;55.708;37.478;2023-02-11T10:39:11;11.70;;;4.45;;
49824;SDS011;35714;55.708;37.478;2023-02-11T10:41:39;10.85;;;4.43;;
49824;SDS011;35714;55.708;37.478;2023-02-11T10:44:10;9.10;;;3.60;;
49824;SDS011;35714;55.708;37.478;2023-02-11T10:46:45;8.35;;;3.20;;
49824;SDS011;35714;55.708;37.478;2023-02-11T10:49:20;8.10;;;4.25;;
49824;SDS011;35714;55.708;37.478;2023-02-11T10:52:23;9.30;;;4.03;;
49824;SDS011;35714;55.708;37.478;2023-02-11T10:57:35;9.80;;;4.28;;
49824;SDS011;35714;55.708;37.478;2023-02-11T11:00:18;14.15;;;4.72;;
49824;SDS011;35714;55.708;37.478;2023-02-11T11:02:56;12.35;;;4.38;;
49824;SDS011;35714;55.708;37.478;2023-02-11T11:05:28;12.60;;;4.95;;
49824;SDS011;35714;55.708;37.478;2023-02-11T11:08:01;11.95;;;4.95;;
49824;SDS011;35714;55.708;37.478;2023-02-11T11:10:35;11.30;;;4.78;;
49824;SDS011;35714;55.708;37.478;2023-02-11T11:13:29;8.45;;;4.18;;
49824;SDS011;35714;55.708;37.478;2023-02-11T11:18:42;13.93;;;5.15;;
49824;SDS011;35714;55.708;37.478;2023-02-11T11:21:22;10.85;;;5.50;;
49824;SDS011;35714;55.708;37.478;2023-02-11T11:26:20;7.75;;;3.83;;
49824;SDS011;35714;55.708;37.478;2023-02-11T11:29:00;14.48;;;5.80;;
49824;SDS011;35714;55.708;37.478;2023-02-11T11:31:35;13.07;;;4.97;;
49824;SDS011;35714;55.708;37.478;2023-02-11T11:37:09;16.45;;;5.55;;
49824;SDS011;35714;55.708;37.478;2023-02-11T11:39:37;10.98;;;4.30;;
49824;SDS011;35714;55.708;37.478;2023-02-11T11:42:04;14.65;;;4.05;;
49824;SDS011;35714;55.708;37.478;2023-02-11T11:44:55;14.55;;;5.97;;
49824;SDS011;35714;55.708;37.478;2023-02-11T11:47:25;9.63;;;3.58;;
49824;SDS011;35714;55.708;37.478;2023-02-11T11:58:02;14.07;;;4.97;;
49824;SDS011;35714;55.708;37.478;2023-02-11T12:00:38;11.77;;;5.60;;
49824;SDS011;35714;55.708;37.478;2023-02-11T12:05:47;14.50;;;4.97;;
49824;SDS011;35714;55.708;37.478;2023-02-11T12:17:30;12.27;;;5.55;;
49824;SDS011;35714;55.708;37.478;2023-02-11T12:22:25;12.90;;;5.13;;
49824;SDS011;35714;55.708;37.478;2023-02-11T12:33:43;15.35;;;5.70;;
49824;SDS011;35714;55.708;37.478;2023-02-11T12:41:33;12.52;;;5.20;;
49824;SDS011;35714;55.708;37.478;2023-02-11T12:44:24;12.95;;;6.70;;
49824;SDS011;35714;55.708;37.478;2023-02-11T12:47:13;13.05;;;5.75;;
49824;SDS011;35714;55.708;37.478;2023-02-11T12:52:30;12.73;;;5.82;;
49824;SDS011;35714;55.708;37.478;2023-02-11T12:57:51;13.98;;;5.65;;
49824;SDS011;35714;55.708;37.478;2023-02-11T13:06:13;13.13;;;6.00;;
49824;SDS011;35714;55.708;37.478;2023-02-11T13:08:48;22.15;;;6.07;;
49824;SDS011;35714;55.708;37.478;2023-02-11T13:11:19;16.27;;;6.43;;
49824;SDS011;35714;55.708;37.478;2023-02-11T13:13:53;13.43;;;6.05;;
49824;SDS011;35714;55.708;37.478;2023-02-11T13:16:35;14.98;;;6.57;;
49824;SDS011;35714;55.708;37.478;2023-02-11T13:38:04;20.35;;;6.25;;
49824;SDS011;35714;55.708;37.478;2023-02-11T13:40:41;17.15;;;6.78;;
49824;SDS011;35714;55.708;37.478;2023-02-11T13:43:18;15.23;;;6.50;;
49824;SDS011;35714;55.708;37.478;2023-02-11T13:45:46;15.57;;;6.35;;
49824;SDS011;35714;55.708;37.478;2023-02-11T13:50:54;21.27;;;7.60;;
49824;SDS011;35714;55.708;37.478;2023-02-11T13:53:23;19.52;;;7.85;;
49824;SDS011;35714;55.708;37.478;2023-02-11T13:55:53;15.85;;;6.18;;
49824;SDS011;35714;55.708;37.478;2023-02-11T13:58:33;12.77;;;5.13;;
49824;SDS011;35714;55.708;37.478;2023-02-11T14:01:04;18.52;;;6.43;;
49824;SDS011;35714;55.708;37.478;2023-02-11T14:03:37;18.80;;;6.90;;
49824;SDS011;35714;55.708;37.478;2023-02-11T14:27:37;21.98;;;7.85;;
49824;SDS011;35714;55.708;37.478;2023-02-11T14:30:08;17.55;;;6.80;;
49824;SDS011;35714;55.708;37.478;2023-02-11T14:35:38;23.08;;;7.63;;
49824;SDS011;35714;55.708;37.478;2023-02-11T14:40:57;18.60;;;7.05;;
49824;SDS011;35714;55.708;37.478;2023-02-11T14:43:37;18.90;;;7.82;;
49824;SDS011;35714;55.708;37.478;2023-02-11T14:46:05;16.67;;;6.68;;
49824;SDS011;35714;55.708;37.478;2023-02-11T14:48:35;18.65;;;7.15;;
49824;SDS011;35714;55.708;37.478;2023-02-11T14:51:14;16.67;;;7.20;;
49824;SDS011;35714;55.708;37.478;2023-02-11T14:53:43;21.65;;;8.20;;
49824;SDS011;35714;55.708;37.478;2023-02-11T14:58:50;15.73;;;6.95;;
49824;SDS011;35714;55.708;37.478;2023-02-11T15:01:26;17.55;;;7.15;;
49824;SDS011;35714;55.708;37.478;2023-02-11T15:03:53;16.00;;;6.45;;
49824;SDS011;35714;55.708;37.478;2023-02-11T15:06:24;19.02;;;6.65;;
49824;SDS011;35714;55.708;37.478;2023-02-11T15:08:57;17.65;;;6.82;;
49824;SDS011;35714;55.708;37.478;2023-02-11T15:11:27;16.77;;;7.22;;
49824;SDS011;35714;55.708;37.478;2023-02-11T15:13:57;19.75;;;7.40;;
49824;SDS011;35714;55.708;37.478;2023-02-11T15:16:30;18.73;;;5.75;;
49824;SDS011;35714;55.708;37.478;2023-02-11T15:19:01;16.13;;;7.10;;
49824;SDS011;35714;55.708;37.478;2023-02-11T15:21:32;20.30;;;8.13;;
49824;SDS011;35714;55.708;37.478;2023-02-11T15:24:04;17.83;;;6.45;;
49824;SDS011;35714;55.708;37.478;2023-02-11T15:26:54;18.97;;;6.33;;
49824;SDS011;35714;55.708;37.478;2023-02-11T15:32:01;16.55;;;7.43;;
49824;SDS011;35714;55.708;37.478;2023-02-11T15:34:31;21.17;;;8.95;;
49824;SDS011;35714;55.708;37.478;2023-02-11T15:36:57;12.77;;;5.40;;
49824;SDS011;35714;55.708;37.478;2023-02-11T15:39:41;15.48;;;6.43;;
49824;SDS011;35714;55.708;37.478;2023-02-11T15:47:36;19.63;;;6.18;;
49824;SDS011;35714;55.708;37.478;2023-02-11T15:50:03;15.57;;;6.45;;
49824;SDS011;35714;55.708;37.478;2023-02-11T15:52:30;22.05;;;8.02;;
49824;SDS011;35714;55.708;37.478;2023-02-11T15:54:58;20.27;;;6.20;;
49824;SDS011;35714;55.708;37.478;2023-02-11T15:57:25;16.83;;;6.50;;
49824;SDS011;35714;55.708;37.478;2023-02-11T15:59:53;14.05;;;6.35;;
49824;SDS011;35714;55.708;37.478;2023-02-11T16:02:32;16.80;;;6.80;;
49824;SDS011;35714;55.708;37.478;2023-02-11T16:05:06;15.75;;;6.50;;
49824;SDS011;35714;55.708;37.478;2023-02-11T16:07:37;24.42;;;6.40;;
49824;SDS011;35714;55.708;37.478;2023-02-11T16:10:16;21.02;;;6.35;;
49824;SDS011;35714;55.708;37.478;2023-02-11T16:12:49;16.73;;;6.10;;
49824;SDS011;35714;55.708;37.478;2023-02-11T16:20:53;14.18;;;6.22;;
49824;SDS011;35714;55.708;37.478;2023-02-11T16:23:24;18.50;;;6.78;;
49824;SDS011;35714;55.708;37.478;2023-02-11T16:25:59;12.00;;;4.93;;
49824;SDS011;35714;55.708;37.478;2023-02-11T16:31:00;19.90;;;7.13;;
49824;SDS011;35714;55.708;37.478;2023-02-11T16:33:26;18.15;;;6.07;;
49824;SDS011;35714;55.708;37.478;2023-02-11T16:35:53;17.85;;;6.30;;
49824;SDS011;35714;55.708;37.478;2023-02-11T16:38:18;19.20;;;6.72;;
49824;SDS011;35714;55.708;37.478;2023-02-11T16:40:44;17.85;;;6.68;;
49824;SDS011;35714;55.708;37.478;2023-02-11T16:43:13;17.60;;;6.40;;
49824;SDS011;35714;55.708;37.478;2023-02-11T16:45:42;10.90;;;5.30;;
49824;SDS011;35714;55.708;37.478;2023-02-11T16:48:08;19.15;;;6.55;;
49824;SDS011;35714;55.708;37.478;2023-02-11T16:50:38;20.33;;;7.00;;
49824;SDS011;35714;55.708;37.478;2023-02-11T16:53:09;18.52;;;6.32;;
49824;SDS011;35714;55.708;37.478;2023-02-11T16:55:35;11.18;;;5.10;;
49824;SDS011;35714;55.708;37.478;2023-02-11T16:58:01;16.45;;;6.13;;
49824;SDS011;35714;55.708;37.478;2023-02-11T17:00:27;16.30;;;6.43;;
49824;SDS011;35714;55.708;37.478;2023-02-11T17:02:54;15.50;;;3.75;;
49824;SDS011;35714;55.708;37.478;2023-02-11T17:05:21;19.00;;;6.90;;
49824;SDS011;35714;55.708;37.478;2023-02-11T17:07:49;11.48;;;5.15;;
49824;SDS011;35714;55.708;37.478;2023-02-11T17:10:15;15.55;;;5.90;;
49824;SDS011;35714;55.708;37.478;2023-02-11T17:12:46;16.15;;;5.47;;
49824;SDS011;35714;55.708;37.478;2023-02-11T17:15:12;16.52;;;5.72;;
49824;SDS011;35714;55.708;37.478;2023-02-11T17:17:38;14.27;;;5.25;;
49824;SDS011;35714;55.708;37.478;2023-02-11T17:20:04;8.57;;;4.15;;
49824;SDS011;35714;55.708;37.478;2023-02-11T17:22:31;13.88;;;6.05;;
49824;SDS011;35714;55.708;37.478;2023-02-11T17:24:57;13.60;;;5.70;;
49824;SDS011;35714;55.708;37.478;2023-02-11T17:27:23;12.32;;;4.03;;
49824;SDS011;35714;55.708;37.478;2023-02-11T17:29:49;16.00;;;6.60;;